createdAt,value
2017-09-30T00:02:18.879Z,22.33
2017-09-30T00:04:46.347Z,24.00
2017-09-30T00:07:14.580Z,23.87
2017-09-30T00:09:42.060Z,22.37
2017-09-30T00:12:09.539Z,19.93
2017-09-30T00:14:37.791Z,20.07
2017-09-30T00:17:05.266Z,21.93
2017-09-30T00:19:33.498Z,21.37
2017-09-30T00:22:00.979Z,18.90
2017-09-30T00:24:28.441Z,17.13
2017-09-30T00:26:55.924Z,13.97
2017-09-30T00:29:24.151Z,15.70
2017-09-30T00:31:51.626Z,13.33
2017-09-30T00:34:19.093Z,11.10
2017-09-30T00:36:47.318Z,7.93
2017-09-30T00:39:14.804Z,7.60
2017-09-30T00:41:42.271Z,8.00
2017-09-30T00:44:09.756Z,8.13
2017-09-30T00:46:37.210Z,7.77
2017-09-30T00:49:04.684Z,7.50
2017-09-30T00:51:32.147Z,7.30
2017-09-30T00:53:59.623Z,7.83
2017-09-30T00:56:27.103Z,7.50
2017-09-30T00:58:54.562Z,7.10
2017-09-30T01:01:23.559Z,8.60
2017-09-30T01:03:51.008Z,7.03
2017-09-30T01:06:18.462Z,8.23
2017-09-30T01:08:45.931Z,8.07
2017-09-30T01:11:14.154Z,8.10
2017-09-30T01:13:41.641Z,9.67
2017-09-30T01:16:09.099Z,10.77
2017-09-30T01:18:36.567Z,9.93
2017-09-30T01:21:04.047Z,9.20
2017-09-30T01:23:32.274Z,9.20
2017-09-30T01:25:59.746Z,8.90
2017-09-30T01:28:27.219Z,10.97
2017-09-30T01:30:54.691Z,9.83
2017-09-30T01:33:22.910Z,9.87
2017-09-30T01:35:50.375Z,11.20
2017-09-30T01:38:17.864Z,12.47
2017-09-30T01:40:46.102Z,13.37
2017-09-30T01:43:13.587Z,11.97
2017-09-30T01:45:41.054Z,12.20
2017-09-30T01:48:08.528Z,12.50
2017-09-30T01:50:36.762Z,12.67
2017-09-30T01:53:04.243Z,12.60
2017-09-30T01:55:31.714Z,10.00
2017-09-30T01:57:59.942Z,10.30
2017-09-30T02:00:27.423Z,10.53
2017-09-30T02:02:54.891Z,13.00
2017-09-30T02:05:23.137Z,12.23
2017-09-30T02:07:50.604Z,10.03
2017-09-30T02:10:18.078Z,10.20
2017-09-30T02:12:46.367Z,10.00
2017-09-30T02:15:14.591Z,9.27
2017-09-30T02:17:42.054Z,9.40
2017-09-30T02:20:09.531Z,8.40
2017-09-30T02:22:36.995Z,10.43
2017-09-30T02:25:05.310Z,11.40
2017-09-30T02:27:32.767Z,11.00
2017-09-30T02:30:00.243Z,11.50
2017-09-30T02:32:27.714Z,12.17
2017-09-30T02:34:55.175Z,14.10
2017-09-30T02:37:22.650Z,14.17
2017-09-30T02:39:50.107Z,13.90
2017-09-30T02:42:18.370Z,11.47
2017-09-30T02:44:45.842Z,12.83
2017-09-30T02:47:14.070Z,12.07
2017-09-30T02:49:41.555Z,13.13
2017-09-30T02:52:09.030Z,11.93
2017-09-30T02:54:37.262Z,11.77
2017-09-30T02:57:04.746Z,12.27
2017-09-30T02:59:32.226Z,11.80
2017-09-30T03:02:00.454Z,12.60
2017-09-30T03:04:27.931Z,12.97
2017-09-30T03:06:55.391Z,13.90
2017-09-30T03:09:24.386Z,12.93
2017-09-30T03:11:51.850Z,12.40
2017-09-30T03:14:20.082Z,12.27
2017-09-30T03:16:47.549Z,15.20
2017-09-30T03:19:15.041Z,13.87
2017-09-30T03:21:42.522Z,14.93
2017-09-30T03:24:09.988Z,14.27
2017-09-30T03:26:37.470Z,13.87
2017-09-30T03:29:04.952Z,12.53
2017-09-30T03:31:32.436Z,14.30
2017-09-30T03:34:00.674Z,13.43
2017-09-30T03:36:28.138Z,13.00
2017-09-30T03:38:55.623Z,15.03
2017-09-30T03:41:23.851Z,13.60
2017-09-30T03:43:51.327Z,13.10
2017-09-30T03:46:18.794Z,11.90
2017-09-30T03:48:46.268Z,11.30
2017-09-30T03:51:14.527Z,12.50
2017-09-30T03:53:42.758Z,12.47
2017-09-30T03:56:10.211Z,12.60
2017-09-30T03:58:37.698Z,14.30
2017-09-30T04:01:05.179Z,14.60
2017-09-30T04:03:33.408Z,14.60
2017-09-30T04:06:00.872Z,12.90
2017-09-30T04:08:28.360Z,10.67
2017-09-30T04:10:55.862Z,11.33
2017-09-30T04:13:23.322Z,14.10
2017-09-30T04:15:50.792Z,14.97
2017-09-30T04:18:18.267Z,13.80
2017-09-30T04:20:45.740Z,14.03
2017-09-30T04:23:13.215Z,13.43
2017-09-30T04:25:41.443Z,13.07
2017-09-30T04:28:08.923Z,14.87
2017-09-30T04:30:36.385Z,14.67
2017-09-30T04:33:03.842Z,14.33
2017-09-30T04:35:32.091Z,14.90
2017-09-30T04:37:59.555Z,16.17
2017-09-30T04:40:27.055Z,16.30
2017-09-30T04:42:54.510Z,16.90
2017-09-30T04:45:21.983Z,14.63
2017-09-30T04:47:49.443Z,17.07
2017-09-30T04:50:16.910Z,16.60
2017-09-30T04:52:44.391Z,16.93
2017-09-30T04:55:11.858Z,17.27
2017-09-30T04:57:40.103Z,16.50
2017-09-30T05:00:07.569Z,16.03
2017-09-30T05:02:35.042Z,16.47
2017-09-30T05:05:02.520Z,16.93
2017-09-30T05:07:30.746Z,16.50
2017-09-30T05:09:58.248Z,18.27
2017-09-30T05:12:25.706Z,17.97
2017-09-30T05:14:53.930Z,17.67
2017-09-30T05:17:21.602Z,17.73
2017-09-30T05:19:49.074Z,18.77
2017-09-30T05:22:16.684Z,18.27
2017-09-30T05:24:44.184Z,18.20
2017-09-30T05:27:11.674Z,19.90
2017-09-30T05:29:40.124Z,18.33
2017-09-30T05:32:07.599Z,18.67
2017-09-30T05:34:35.265Z,18.97
2017-09-30T05:37:03.542Z,20.57
2017-09-30T05:39:31.774Z,20.57
2017-09-30T05:41:59.255Z,18.73
2017-09-30T05:44:26.757Z,19.47
2017-09-30T05:46:54.214Z,18.20
2017-09-30T05:49:21.673Z,18.00
2017-09-30T05:51:49.527Z,17.83
2017-09-30T05:54:17.966Z,17.17
2017-09-30T05:56:45.446Z,18.20
2017-09-30T05:59:13.899Z,17.87
2017-09-30T06:01:41.520Z,18.87
2017-09-30T06:04:09.071Z,17.23
2017-09-30T06:06:36.586Z,18.07
2017-09-30T06:09:04.281Z,17.27
2017-09-30T06:11:32.347Z,16.47
2017-09-30T06:14:01.089Z,15.83
2017-09-30T06:16:28.635Z,16.10
2017-09-30T06:18:56.327Z,16.30
2017-09-30T06:21:23.902Z,16.87
2017-09-30T06:23:52.119Z,15.73
2017-09-30T06:26:19.603Z,16.50
2017-09-30T06:28:47.071Z,15.83
2017-09-30T06:31:14.821Z,13.77
2017-09-30T06:33:42.443Z,15.93
2017-09-30T06:36:10.177Z,16.50
2017-09-30T06:38:38.403Z,15.30
2017-09-30T06:41:05.942Z,14.80
2017-09-30T06:43:33.436Z,15.17
2017-09-30T06:49:04.667Z,15.27
2017-09-30T06:51:32.934Z,16.30
2017-09-30T06:54:00.471Z,15.10
2017-09-30T06:56:28.110Z,16.97
2017-09-30T06:58:55.659Z,15.33
2017-09-30T07:01:23.146Z,16.70
2017-09-30T07:03:51.401Z,15.80
2017-09-30T07:06:18.886Z,15.80
2017-09-30T07:08:46.419Z,16.00
2017-09-30T07:11:14.654Z,15.57
2017-09-30T07:13:42.214Z,16.73
2017-09-30T07:16:09.674Z,18.10
2017-09-30T07:18:37.255Z,19.40
2017-09-30T07:21:04.738Z,18.80
2017-09-30T07:23:32.966Z,19.50
2017-09-30T07:26:00.448Z,19.20
2017-09-30T07:28:27.927Z,18.80
2017-09-30T07:30:56.155Z,18.10
2017-09-30T07:33:23.643Z,17.20
2017-09-30T07:35:52.689Z,18.40
2017-09-30T07:38:20.148Z,19.70
2017-09-30T07:40:47.659Z,19.40
2017-09-30T07:43:15.989Z,21.47
2017-09-30T07:45:43.471Z,23.03
2017-09-30T07:48:11.066Z,23.10
2017-09-30T07:50:39.365Z,23.47
2017-09-30T07:53:06.840Z,26.50
2017-09-30T07:55:34.323Z,26.43
2017-09-30T07:58:01.810Z,26.23
2017-09-30T08:00:30.070Z,26.50
2017-09-30T08:02:58.312Z,27.63
2017-09-30T08:05:25.862Z,26.20
2017-09-30T08:07:53.380Z,22.80
2017-09-30T08:10:20.871Z,21.33
2017-09-30T08:12:48.386Z,20.60
2017-09-30T08:15:16.639Z,20.40
2017-09-30T08:17:44.163Z,18.20
2017-09-30T08:20:11.674Z,19.50
2017-09-30T08:22:39.230Z,20.60
2017-09-30T08:25:06.848Z,19.40
2017-09-30T08:27:34.333Z,19.90
2017-09-30T08:30:01.805Z,16.00
2017-09-30T08:32:30.047Z,19.73
2017-09-30T08:34:57.518Z,15.43
2017-09-30T08:37:24.995Z,15.23
2017-09-30T08:39:53.239Z,14.57
2017-09-30T08:42:20.715Z,15.27
2017-09-30T08:44:48.184Z,15.80
2017-09-30T08:47:16.444Z,13.27
2017-09-30T08:49:43.945Z,10.73
2017-09-30T08:52:11.506Z,11.37
2017-09-30T08:54:38.997Z,12.20
2017-09-30T08:57:06.489Z,11.20
2017-09-30T08:59:34.735Z,12.30
2017-09-30T09:02:02.821Z,10.53
2017-09-30T09:04:30.403Z,8.17
2017-09-30T09:06:58.077Z,12.57
2017-09-30T09:09:25.667Z,16.87
2017-09-30T09:11:53.143Z,18.40
2017-09-30T09:14:20.632Z,18.70
2017-09-30T09:16:48.821Z,19.20
2017-09-30T09:19:16.839Z,19.67
2017-09-30T09:21:44.325Z,18.93
2017-09-30T09:24:12.566Z,19.73
2017-09-30T09:26:40.055Z,19.27
2017-09-30T09:29:08.312Z,19.37
2017-09-30T09:31:35.802Z,18.50
2017-09-30T09:34:03.273Z,17.77
2017-09-30T09:36:30.768Z,16.17
2017-09-30T09:38:58.249Z,17.40
2017-09-30T09:41:25.731Z,14.90
2017-09-30T09:43:53.311Z,15.63
2017-09-30T09:46:20.810Z,18.10
2017-09-30T09:48:48.282Z,17.03
2017-09-30T09:51:15.837Z,15.90
2017-09-30T09:53:43.312Z,8.60
2017-09-30T09:56:11.572Z,9.90
2017-09-30T09:58:39.820Z,9.53
2017-09-30T10:01:07.289Z,12.10
2017-09-30T10:03:34.790Z,11.87
2017-09-30T10:06:02.256Z,13.97
2017-09-30T10:08:29.746Z,15.67
2017-09-30T10:10:57.215Z,16.63
2017-09-30T10:13:24.707Z,17.30
2017-09-30T10:15:52.204Z,18.90
2017-09-30T10:18:19.667Z,17.90
2017-09-30T10:20:47.167Z,15.80
2017-09-30T10:23:15.394Z,16.87
2017-09-30T10:25:42.870Z,17.43
2017-09-30T10:28:10.388Z,17.30
2017-09-30T10:30:37.855Z,17.27
2017-09-30T10:33:05.326Z,13.73
2017-09-30T10:35:32.827Z,10.40
2017-09-30T10:38:00.332Z,10.50
2017-09-30T10:40:27.816Z,10.53
2017-09-30T10:42:55.284Z,10.20
2017-09-30T10:45:22.780Z,10.37
2017-09-30T10:47:50.244Z,10.80
2017-09-30T10:50:17.709Z,12.30
2017-09-30T10:52:45.192Z,12.30
2017-09-30T10:55:12.663Z,11.27
2017-09-30T10:57:40.154Z,10.50
2017-09-30T11:00:07.728Z,9.90
2017-09-30T11:02:35.207Z,11.27
2017-09-30T11:05:02.663Z,11.63
2017-09-30T11:07:30.131Z,11.90
2017-09-30T11:09:57.630Z,12.30
2017-09-30T11:12:25.850Z,12.63
2017-09-30T11:14:53.327Z,14.27
2017-09-30T11:17:20.802Z,15.50
2017-09-30T11:19:49.055Z,15.73
2017-09-30T11:22:16.547Z,13.90
2017-09-30T11:24:44.781Z,16.57
2017-09-30T11:27:12.254Z,17.97
2017-09-30T11:29:39.762Z,14.30
2017-09-30T11:32:07.247Z,15.30
2017-09-30T11:34:34.730Z,14.53
2017-09-30T11:37:02.198Z,16.83
2017-09-30T11:39:30.473Z,15.40
2017-09-30T11:41:58.702Z,14.77
2017-09-30T11:44:26.166Z,14.37
2017-09-30T11:46:53.647Z,14.37
2017-09-30T11:49:21.115Z,15.67
2017-09-30T11:51:49.360Z,14.60
2017-09-30T11:54:16.842Z,14.60
2017-09-30T11:56:45.080Z,15.27
2017-09-30T11:59:12.586Z,15.57
2017-09-30T12:01:40.819Z,15.23
2017-09-30T12:04:08.308Z,16.07
2017-09-30T12:06:36.547Z,16.50
2017-09-30T12:09:04.020Z,18.13
2017-09-30T12:11:31.487Z,17.70
2017-09-30T12:13:59.743Z,17.17
2017-09-30T12:16:27.349Z,12.50
2017-09-30T12:18:55.025Z,11.53
2017-09-30T12:21:22.495Z,9.30
2017-09-30T12:23:50.172Z,7.63
2017-09-30T12:26:17.767Z,8.30
2017-09-30T12:28:45.698Z,7.47
2017-09-30T12:31:13.175Z,7.77
2017-09-30T12:33:40.646Z,6.67
2017-09-30T12:36:08.218Z,7.63
2017-09-30T12:38:36.493Z,7.70
2017-09-30T12:41:04.828Z,7.00
2017-09-30T12:43:32.356Z,9.73
2017-09-30T12:45:59.875Z,8.80
2017-09-30T12:48:28.115Z,8.30
2017-09-30T12:50:55.849Z,7.40
2017-09-30T12:53:23.331Z,7.63
2017-09-30T12:55:50.811Z,7.23
2017-09-30T12:58:18.370Z,5.53
2017-09-30T13:00:45.856Z,5.43
2017-09-30T13:03:15.099Z,5.47
2017-09-30T13:05:42.554Z,5.03
2017-09-30T13:08:10.023Z,5.70
2017-09-30T13:10:37.510Z,3.33
2017-09-30T13:13:05.090Z,4.40
2017-09-30T13:15:33.469Z,3.80
2017-09-30T13:18:01.019Z,4.83
2017-09-30T13:20:29.481Z,4.50
2017-09-30T13:22:57.085Z,5.00
2017-09-30T13:25:24.564Z,5.30
2017-09-30T13:27:52.031Z,4.80
2017-09-30T13:30:19.495Z,5.80
2017-09-30T13:32:46.971Z,5.47
2017-09-30T13:35:15.217Z,6.50
2017-09-30T13:37:42.683Z,6.30
2017-09-30T13:40:10.154Z,6.40
2017-09-30T13:42:38.387Z,6.77
2017-09-30T13:45:05.850Z,6.40
2017-09-30T13:47:33.331Z,8.67
2017-09-30T13:50:00.892Z,6.87
2017-09-30T13:52:28.363Z,7.17
2017-09-30T13:54:56.607Z,7.83
2017-09-30T13:57:24.078Z,6.70
2017-09-30T13:59:51.584Z,6.10
2017-09-30T14:02:19.147Z,7.20
2017-09-30T14:04:46.674Z,6.70
2017-09-30T14:07:14.922Z,6.40
2017-09-30T14:09:42.403Z,7.10
2017-09-30T14:12:10.709Z,5.93
2017-09-30T14:14:38.183Z,6.50
2017-09-30T14:17:05.637Z,6.37
2017-09-30T14:19:33.119Z,7.60
2017-09-30T14:22:00.582Z,7.33
2017-09-30T14:24:28.114Z,6.30
2017-09-30T14:26:55.595Z,6.43
2017-09-30T14:29:23.058Z,5.10
2017-09-30T14:31:50.598Z,5.90
2017-09-30T14:34:18.087Z,4.50
2017-09-30T14:36:46.347Z,3.80
2017-09-30T14:39:13.817Z,4.17
2017-09-30T14:41:42.074Z,4.07
2017-09-30T14:44:09.553Z,4.20
2017-09-30T14:46:37.862Z,3.60
2017-09-30T14:49:05.340Z,4.97
2017-09-30T14:51:32.818Z,3.73
2017-09-30T14:54:01.059Z,3.83
2017-09-30T14:56:28.558Z,4.20
2017-09-30T14:58:56.008Z,3.87
2017-09-30T15:01:23.520Z,4.03
2017-09-30T15:03:52.712Z,3.90
2017-09-30T15:06:20.305Z,4.10
2017-09-30T15:08:47.771Z,3.90
2017-09-30T15:11:15.289Z,3.77
2017-09-30T15:13:42.745Z,3.67
2017-09-30T15:16:10.227Z,4.10
2017-09-30T15:18:37.832Z,3.77
2017-09-30T15:21:06.047Z,3.30
2017-09-30T15:23:33.523Z,3.33
2017-09-30T15:26:01.011Z,2.80
2017-09-30T15:28:28.474Z,3.27
2017-09-30T15:30:56.707Z,3.30
2017-09-30T15:33:24.167Z,3.13
2017-09-30T15:35:51.658Z,3.20
2017-09-30T15:38:19.130Z,3.00
2017-09-30T15:40:47.782Z,3.50
2017-09-30T15:43:15.463Z,3.40
2017-09-30T15:45:43.048Z,4.23
2017-09-30T15:48:10.532Z,3.70
2017-09-30T15:50:38.091Z,3.60
2017-09-30T15:53:05.552Z,3.73
2017-09-30T15:55:33.054Z,3.70
2017-09-30T15:58:01.482Z,4.07
2017-09-30T16:00:29.036Z,4.00
2017-09-30T16:02:56.501Z,3.83
2017-09-30T16:05:24.246Z,4.13
2017-09-30T16:07:52.167Z,4.37
2017-09-30T16:10:19.626Z,4.80
2017-09-30T16:12:47.875Z,5.33
2017-09-30T16:15:15.402Z,5.30
2017-09-30T16:17:42.993Z,5.33
2017-09-30T16:20:10.471Z,5.30
2017-09-30T16:22:38.054Z,4.50
2017-09-30T16:25:05.540Z,4.83
2017-09-30T16:27:33.120Z,5.43
2017-09-30T16:30:01.394Z,5.70
2017-09-30T16:32:29.090Z,5.37
2017-09-30T16:34:56.807Z,4.63
2017-09-30T16:37:24.308Z,4.90
2017-09-30T16:39:51.920Z,4.40
2017-09-30T16:42:19.468Z,4.10
2017-09-30T16:44:46.943Z,4.53
2017-09-30T16:47:14.482Z,4.33
2017-09-30T16:49:42.170Z,4.20
2017-09-30T16:52:11.033Z,4.53
2017-09-30T16:54:38.499Z,5.37
2017-09-30T16:57:05.979Z,6.17
2017-09-30T16:59:33.463Z,5.40
2017-09-30T17:02:00.974Z,5.27
2017-09-30T17:04:28.862Z,4.83
2017-09-30T17:06:56.392Z,5.27
2017-09-30T17:09:23.858Z,5.53
2017-09-30T17:11:51.349Z,5.40
2017-09-30T17:14:18.812Z,5.67
2017-09-30T17:16:46.296Z,5.60
2017-09-30T17:19:13.782Z,6.87
2017-09-30T17:21:41.268Z,5.07
2017-09-30T17:24:08.742Z,5.97
2017-09-30T17:26:36.975Z,5.30
2017-09-30T17:29:04.451Z,4.67
2017-09-30T17:31:31.935Z,5.20
2017-09-30T17:34:00.158Z,5.37
2017-09-30T17:36:27.629Z,5.30
2017-09-30T17:38:55.095Z,4.50
2017-09-30T17:41:23.350Z,5.27
2017-09-30T17:43:50.818Z,5.20
2017-09-30T17:46:19.071Z,5.47
2017-09-30T17:48:46.597Z,6.67
2017-09-30T17:51:14.087Z,5.83
2017-09-30T17:53:41.564Z,5.73
2017-09-30T17:56:09.079Z,6.60
2017-09-30T17:58:36.553Z,6.33
2017-09-30T18:01:04.112Z,5.40
2017-09-30T18:03:31.582Z,6.90
2017-09-30T18:05:59.059Z,5.00
2017-09-30T18:08:26.547Z,6.60
2017-09-30T18:10:54.784Z,5.90
2017-09-30T18:13:22.280Z,6.00
2017-09-30T18:15:50.608Z,5.50
2017-09-30T18:18:18.179Z,6.10
2017-09-30T18:20:45.660Z,6.50
2017-09-30T18:23:13.213Z,7.90
2017-09-30T18:25:40.703Z,10.97
2017-09-30T18:28:08.202Z,8.13
2017-09-30T18:30:35.699Z,6.60
2017-09-30T18:33:04.172Z,6.50
2017-09-30T18:35:32.499Z,5.70
2017-09-30T18:38:00.105Z,5.77
2017-09-30T18:40:27.642Z,7.30
2017-09-30T18:42:55.124Z,7.23
2017-09-30T18:45:22.844Z,6.70
2017-09-30T18:47:51.442Z,5.60
2017-09-30T18:50:19.023Z,6.10
2017-09-30T18:52:46.578Z,6.67
2017-09-30T18:55:14.083Z,8.23
2017-09-30T18:57:41.584Z,8.10
2017-09-30T19:00:09.051Z,9.87
2017-09-30T19:02:37.323Z,7.20
2017-09-30T19:05:05.063Z,5.87
2017-09-30T19:07:32.542Z,6.10
2017-09-30T19:10:00.134Z,5.43
2017-09-30T19:12:27.836Z,5.90
2017-09-30T19:14:55.309Z,6.60
2017-09-30T19:17:23.028Z,6.17
2017-09-30T19:19:50.887Z,7.10
2017-09-30T19:22:18.380Z,5.77
2017-09-30T19:24:45.963Z,6.10
2017-09-30T19:27:14.239Z,7.40
2017-09-30T19:29:41.739Z,8.60
2017-09-30T19:32:09.204Z,25.73
2017-09-30T19:34:36.836Z,9.50
2017-09-30T19:37:04.341Z,8.47
2017-09-30T19:39:32.074Z,9.20
2017-09-30T19:41:59.625Z,8.47
2017-09-30T19:44:27.096Z,7.20
2017-09-30T19:46:54.584Z,7.37
2017-09-30T19:49:22.092Z,7.37
2017-09-30T19:51:49.563Z,7.10
2017-09-30T19:54:17.067Z,7.30
2017-09-30T19:56:44.742Z,7.90
2017-09-30T19:59:12.279Z,7.30
2017-09-30T20:01:39.783Z,7.03
2017-09-30T20:04:07.350Z,8.57
2017-09-30T20:06:34.973Z,9.67
2017-09-30T20:09:02.591Z,11.23
2017-09-30T20:11:30.297Z,10.30
2017-09-30T20:13:58.605Z,11.37
2017-09-30T20:16:26.106Z,10.20
2017-09-30T20:18:53.624Z,10.10
2017-09-30T20:21:21.183Z,9.80
2017-09-30T20:23:48.728Z,9.77
2017-09-30T20:26:16.272Z,9.60
2017-09-30T20:28:43.967Z,8.67
2017-09-30T20:31:11.510Z,9.60
2017-09-30T20:33:38.975Z,9.00
2017-09-30T20:36:06.560Z,9.40
2017-09-30T20:38:34.079Z,9.40
2017-09-30T20:41:02.315Z,8.87
2017-09-30T20:43:29.785Z,10.30
2017-09-30T20:45:57.277Z,9.37
2017-09-30T20:48:24.849Z,8.90
2017-09-30T20:50:52.314Z,8.50
2017-09-30T20:53:19.788Z,8.80
2017-09-30T20:55:47.325Z,10.07
2017-09-30T20:58:14.796Z,9.67
2017-09-30T21:00:42.265Z,10.60
2017-09-30T21:03:10.495Z,9.93
2017-09-30T21:05:37.990Z,10.43
2017-09-30T21:08:05.464Z,10.93
2017-09-30T21:10:32.931Z,12.27
2017-09-30T21:13:00.440Z,12.57
2017-09-30T21:15:27.917Z,12.40
2017-09-30T21:17:55.383Z,13.77
2017-09-30T21:20:22.868Z,13.27
2017-09-30T21:22:51.101Z,13.97
2017-09-30T21:25:18.574Z,14.23
2017-09-30T21:27:46.091Z,12.43
2017-09-30T21:30:13.685Z,13.60
2017-09-30T21:35:15.106Z,15.20
2017-09-30T21:37:42.591Z,15.00
2017-09-30T21:40:10.064Z,13.97
2017-09-30T21:42:37.532Z,14.40
2017-09-30T21:45:06.530Z,13.50
2017-09-30T21:47:34.014Z,17.20
2017-09-30T21:50:01.491Z,15.73
2017-09-30T21:52:28.959Z,15.07
2017-09-30T21:54:56.453Z,14.90
2017-09-30T21:57:23.943Z,12.83
2017-09-30T21:59:52.162Z,14.03
2017-09-30T22:02:19.643Z,13.77
2017-09-30T22:04:47.140Z,17.87
2017-09-30T22:07:14.628Z,18.93
2017-09-30T22:09:42.100Z,16.30
2017-09-30T22:12:09.580Z,13.27
2017-09-30T22:14:37.043Z,13.70
2017-09-30T22:17:05.300Z,14.70
2017-09-30T22:19:32.808Z,14.53
2017-09-30T22:22:00.290Z,14.10
2017-09-30T22:24:27.767Z,16.63
2017-09-30T22:26:55.246Z,15.07
2017-09-30T22:29:23.537Z,17.83
2017-09-30T22:31:51.776Z,21.00
2017-09-30T22:34:19.243Z,25.10
2017-09-30T22:36:46.698Z,21.30
2017-09-30T22:39:14.204Z,20.53
2017-09-30T22:41:41.662Z,18.90
2017-09-30T22:44:09.122Z,19.60
2017-09-30T22:46:36.606Z,19.90
2017-09-30T22:49:04.070Z,19.73
2017-09-30T22:51:33.071Z,19.80
2017-09-30T22:54:01.310Z,21.10
2017-09-30T22:56:28.801Z,18.63
2017-09-30T22:58:56.288Z,17.83
2017-09-30T23:01:23.750Z,18.60
2017-09-30T23:03:51.224Z,19.60
2017-09-30T23:06:18.686Z,21.20
2017-09-30T23:08:46.154Z,20.60
2017-09-30T23:11:13.654Z,20.40
2017-09-30T23:13:41.867Z,20.83
2017-09-30T23:16:09.344Z,18.70
2017-09-30T23:18:36.810Z,19.80
2017-09-30T23:21:05.053Z,19.60
2017-09-30T23:23:32.519Z,19.07
2017-09-30T23:26:00.018Z,18.70
2017-09-30T23:28:28.982Z,20.00
2017-09-30T23:30:56.482Z,19.93
2017-09-30T23:33:24.739Z,18.63
2017-09-30T23:35:52.959Z,20.07
2017-09-30T23:38:20.439Z,18.03
2017-09-30T23:40:47.918Z,18.00
2017-09-30T23:43:15.391Z,17.83
2017-09-30T23:45:43.610Z,18.23
2017-09-30T23:48:11.293Z,19.17
2017-09-30T23:50:40.302Z,19.53
2017-09-30T23:53:07.788Z,19.73
2017-09-30T23:55:35.287Z,19.43
2017-09-30T23:58:02.763Z,19.70
